Time;durP1;ratioP1;P1;durP2;ratioP2;P2;SDS_P1;SDS_P2;PMS_P1;PMS_P2;Temp;Humidity;BMP_temperature;BMP_pressure;BME280_temperature;BME280_humidity;BME280_pressure;Samples;Min_cycle;Max_cycle;Signal;HPM_P1;HPM_P2
2023/01/07 00:02:24;;;;;;;2.83;1.80;;;;;;;;;;5093948;28;20817;-73
2023/01/07 00:04:52;;;;;;;2.37;1.47;;;;;;;;;;5094825;28;20447;-73
2023/01/07 00:07:19;;;;;;;1.27;1.10;;;;;;;;;;5094131;28;20444;-74
2023/01/07 00:09:46;;;;;;;1.67;1.00;;;;;;;;;;5094836;28;20451;-73
2023/01/07 00:12:13;;;;;;;3.10;1.50;;;;;;;;;;5093694;28;20460;-73
2023/01/07 00:14:40;;;;;;;2.57;1.60;;;;;;;;;;5094583;28;20455;-73
2023/01/07 00:17:08;;;;;;;2.70;1.63;;;;;;;;;;5093768;28;20478;-72
2023/01/07 00:19:35;;;;;;;1.23;0.80;;;;;;;;;;5094458;28;20446;-73
2023/01/07 00:22:03;;;;;;;1.60;1.20;;;;;;;;;;5081394;28;20474;-74
2023/01/07 00:24:30;;;;;;;1.30;0.93;;;;;;;;;;5093844;28;20920;-73
2023/01/07 00:26:57;;;;;;;1.73;1.20;;;;;;;;;;5094737;28;20452;-73
2023/01/07 00:29:24;;;;;;;1.60;1.20;;;;;;;;;;5093879;28;20451;-73
2023/01/07 00:31:52;;;;;;;2.27;1.33;;;;;;;;;;5094419;28;20451;-74
2023/01/07 00:34:22;;;;;;;1.70;1.00;;;;;;;;;;5092930;28;20454;-74
2023/01/07 00:36:49;;;;;;;3.10;1.93;;;;;;;;;;5093996;28;20480;-73
2023/01/07 00:39:19;;;;;;;3.40;1.33;;;;;;;;;;5093561;28;20459;-73
2023/01/07 00:44:27;;;;;;;3.23;1.60;;;;;;;;;;5091452;28;20460;-73
2023/01/07 00:46:55;;;;;;;1.60;1.13;;;;;;;;;;5094240;28;20819;-73
2023/01/07 00:49:23;;;;;;;1.53;0.80;;;;;;;;;;5093352;28;20444;-73
2023/01/07 00:51:50;;;;;;;2.20;1.20;;;;;;;;;;5094120;28;20493;-73
2023/01/07 00:54:19;;;;;;;1.80;1.13;;;;;;;;;;5092742;28;20455;-73
2023/01/07 00:56:46;;;;;;;2.10;1.43;;;;;;;;;;5093954;28;20488;-73
2023/01/07 00:59:13;;;;;;;2.37;1.53;;;;;;;;;;5093055;28;20456;-73
2023/01/07 01:01:40;;;;;;;3.50;1.40;;;;;;;;;;5093834;28;20453;-73
2023/01/07 01:04:07;;;;;;;2.40;1.43;;;;;;;;;;5092377;28;20448;-73
2023/01/07 01:06:34;;;;;;;5.13;1.30;;;;;;;;;;5093695;28;20479;-73
2023/01/07 01:09:01;;;;;;;1.00;0.70;;;;;;;;;;5093550;28;20458;-74
2023/01/07 01:11:30;;;;;;;2.80;1.73;;;;;;;;;;5093839;28;20448;-74
2023/01/07 01:13:57;;;;;;;1.60;0.93;;;;;;;;;;5080613;28;20485;-74
2023/01/07 01:16:24;;;;;;;1.83;0.97;;;;;;;;;;5094340;28;20480;-73
2023/01/07 01:18:51;;;;;;;1.77;1.50;;;;;;;;;;5095405;28;20449;-73
2023/01/07 01:21:19;;;;;;;1.13;0.90;;;;;;;;;;5094304;28;20546;-73
2023/01/07 01:23:46;;;;;;;1.63;0.93;;;;;;;;;;5093705;28;20840;-73
2023/01/07 01:26:14;;;;;;;2.40;1.23;;;;;;;;;;5092626;28;20458;-73
2023/01/07 01:28:43;;;;;;;1.53;0.80;;;;;;;;;;5093319;28;20798;-74
2023/01/07 01:31:10;;;;;;;2.17;1.17;;;;;;;;;;5092061;28;20454;-73
2023/01/07 01:33:37;;;;;;;1.73;1.13;;;;;;;;;;5092733;28;20455;-73
2023/01/07 01:36:05;;;;;;;7.40;1.23;;;;;;;;;;5092394;28;20837;-72
2023/01/07 01:38:32;;;;;;;1.50;1.00;;;;;;;;;;5093128;28;20471;-73
2023/01/07 01:40:59;;;;;;;2.30;1.43;;;;;;;;;;5092883;28;20447;-73
2023/01/07 01:43:30;;;;;;;1.10;1.00;;;;;;;;;;5091767;28;20478;-72
2023/01/07 01:45:59;;;;;;;1.50;1.10;;;;;;;;;;5092503;28;20860;-73
2023/01/07 01:48:27;;;;;;;1.10;0.87;;;;;;;;;;5092072;28;20447;-73
2023/01/07 01:50:54;;;;;;;3.27;1.20;;;;;;;;;;5092653;28;20787;-73
2023/01/07 01:53:22;;;;;;;1.50;1.10;;;;;;;;;;5091851;28;20800;-73
2023/01/07 01:55:51;;;;;;;1.37;0.90;;;;;;;;;;5092584;28;20554;-73
2023/01/07 01:58:20;;;;;;;1.20;1.00;;;;;;;;;;5092271;28;20451;-73
2023/01/07 02:00:47;;;;;;;1.67;1.20;;;;;;;;;;5092242;28;20515;-73
2023/01/07 02:03:18;;;;;;;2.03;1.40;;;;;;;;;;5091610;28;20448;-73
2023/01/07 02:05:46;;;;;;;1.93;1.00;;;;;;;;;;5092096;28;20852;-73
2023/01/07 02:08:20;;;;;;;1.77;1.00;;;;;;;;;;5091976;28;20462;-73
2023/01/07 02:10:47;;;;;;;3.43;1.27;;;;;;;;;;5080068;28;20448;-73
2023/01/07 02:13:26;;;;;;;2.20;1.03;;;;;;;;;;5091521;28;20457;-73
2023/01/07 02:15:55;;;;;;;1.97;1.67;;;;;;;;;;5092323;28;20479;-73
2023/01/07 02:18:35;;;;;;;1.00;0.90;;;;;;;;;;5091565;28;20461;-73
2023/01/07 02:21:07;;;;;;;1.40;1.30;;;;;;;;;;5092454;28;20447;-73
2023/01/07 02:23:49;;;;;;;1.63;1.27;;;;;;;;;;5091766;28;20448;-72
2023/01/07 02:26:28;;;;;;;1.00;0.70;;;;;;;;;;5091360;28;20920;-73
2023/01/07 02:29:10;;;;;;;1.10;1.00;;;;;;;;;;5092325;28;20799;-73
2023/01/07 02:31:55;;;;;;;1.13;1.03;;;;;;;;;;5091829;28;20460;-73
2023/01/07 02:34:27;;;;;;;2.40;0.90;;;;;;;;;;5091308;28;20930;-73
2023/01/07 02:36:57;;;;;;;1.77;1.27;;;;;;;;;;5092179;28;20480;-72
2023/01/07 02:39:42;;;;;;;1.67;1.10;;;;;;;;;;5091351;28;20457;-73
2023/01/07 02:42:14;;;;;;;2.00;1.37;;;;;;;;;;5090337;28;20817;-72
2023/01/07 02:44:44;;;;;;;2.47;1.27;;;;;;;;;;5078087;28;20474;-72
2023/01/07 02:47:16;;;;;;;1.80;1.00;;;;;;;;;;5091085;28;20456;-72
2023/01/07 02:49:43;;;;;;;1.47;0.90;;;;;;;;;;5091237;28;20931;-73
2023/01/07 02:52:17;;;;;;;1.40;1.00;;;;;;;;;;5090603;28;20451;-72
2023/01/07 02:54:45;;;;;;;1.20;0.73;;;;;;;;;;5091590;28;20455;-73
2023/01/07 02:57:22;;;;;;;2.17;0.80;;;;;;;;;;5090909;28;20493;-72
2023/01/07 03:00:04;;;;;;;1.63;0.70;;;;;;;;;;5091640;28;20455;-73
2023/01/07 03:02:43;;;;;;;3.60;1.17;;;;;;;;;;5091040;28;20437;-73
2023/01/07 03:05:28;;;;;;;1.23;0.93;;;10.70;99.90;;;;;;5090648;28;20448;-73
2023/01/07 03:08:08;;;;;;;1.43;1.00;;;10.10;1.00;;;;;;5091350;28;20451;-73
2023/01/07 03:10:41;;;;;;;1.33;0.97;;;10.20;1.00;;;;;;5091124;28;20454;-72
2023/01/07 03:13:15;;;;;;;0.90;0.80;;;10.20;1.00;;;;;;5090374;28;20958;-72
2023/01/07 03:15:45;;;;;;;1.63;0.97;;;10.30;1.00;;;;;;5079041;28;20479;-73
2023/01/07 03:18:17;;;;;;;1.00;0.90;;;10.30;99.90;;;;;;5089471;28;20458;-72
2023/01/07 03:20:48;;;;;;;1.10;0.80;;;10.30;1.00;;;;;;5091268;28;20474;-74
2023/01/07 03:23:19;;;;;;;1.33;1.10;;;10.30;1.00;;;;;;5090251;28;20500;-72
2023/01/07 03:25:49;;;;;;;1.00;0.80;;;10.20;99.90;;;;;;5090830;28;20930;-73
2023/01/07 03:28:23;;;;;;;1.93;1.20;;;10.20;1.00;;;;;;5090707;28;20437;-72
2023/01/07 03:30:52;;;;;;;1.23;0.83;;;10.20;1.00;;;;;;5091014;28;20448;-72
2023/01/07 03:33:26;;;;;;;1.33;0.90;;;10.20;1.00;;;;;;5076917;28;20444;-72
2023/01/07 03:35:56;;;;;;;1.33;1.00;;;10.20;99.90;;;;;;5091102;28;20448;-72
2023/01/07 03:38:26;;;;;;;1.17;0.97;;;10.30;1.00;;;;;;5090494;28;21052;-72
2023/01/07 03:40:54;;;;;;;1.33;0.97;;;10.40;1.00;;;;;;5090942;28;20475;-72
2023/01/07 03:43:21;;;;;;;1.23;1.10;;;10.30;99.90;;;;;;5090034;28;20472;-72
2023/01/07 03:45:50;;;;;;;1.80;1.10;;;10.30;1.00;;;;;;5091026;28;20450;-72
2023/01/07 03:48:16;;;;;;;1.43;0.90;;;10.30;99.90;;;;;;5090583;28;20450;-72
2023/01/07 03:50:45;;;;;;;1.50;1.00;;;10.10;1.00;;;;;;5090518;28;20928;-72
2023/01/07 03:53:11;;;;;;;1.30;0.90;;;10.00;99.90;;;;;;5090142;28;20451;-72
2023/01/07 03:55:38;;;;;;;1.00;0.80;;;9.80;99.90;;;;;;5090604;28;20453;-72
2023/01/07 03:58:05;;;;;;;1.20;0.90;;;9.90;1.00;;;;;;5090398;28;20480;-71
2023/01/07 04:00:32;;;;;;;1.53;1.07;;;10.10;1.00;;;;;;5090961;28;20447;-72
2023/01/07 04:02:58;;;;;;;2.10;0.87;;;10.20;99.90;;;;;;5090728;28;20449;-72
2023/01/07 04:05:25;;;;;;;1.27;0.97;;;10.30;1.00;;;;;;5090067;28;20452;-72
2023/01/07 04:07:53;;;;;;;0.90;0.77;;;10.30;1.00;;;;;;5091012;28;20804;-73
2023/01/07 04:10:20;;;;;;;2.00;0.83;;;10.30;1.00;;;;;;5090256;28;20467;-72
2023/01/07 04:12:47;;;;;;;1.20;0.90;;;10.20;1.00;;;;;;5090520;28;20456;-72
2023/01/07 04:15:14;;;;;;;1.30;0.80;;;10.20;1.00;;;;;;5090296;28;20446;-72
2023/01/07 04:17:41;;;;;;;1.80;1.00;;;10.30;1.00;;;;;;5090896;28;20502;-72
2023/01/07 04:20:09;;;;;;;1.00;0.80;;;10.30;1.00;;;;;;5090053;28;20454;-72
2023/01/07 04:22:35;;;;;;;0.93;0.70;;;10.20;1.00;;;;;;5090531;28;20911;-72
2023/01/07 04:25:04;;;;;;;1.63;1.43;;;10.10;18.70;;;;;;5090837;28;20452;-73
2023/01/07 04:27:32;;;;;;;0.90;0.80;;;10.20;1.00;;;;;;5090626;28;20450;-72
2023/01/07 04:29:59;;;;;;;1.47;1.00;;;10.20;1.00;;;;;;5093723;28;20453;-72
2023/01/07 04:32:26;;;;;;;1.10;0.93;;;10.20;1.00;;;;;;5093415;28;20455;-72
2023/01/07 04:34:52;;;;;;;1.00;0.70;;;10.30;1.00;;;;;;5093920;28;20908;-72
2023/01/07 04:37:19;;;;;;;1.37;0.87;;;10.20;1.00;;;;;;5093791;28;20484;-72
2023/01/07 04:39:46;;;;;;;1.10;1.00;;;10.10;1.00;;;;;;5080994;28;20504;-72
2023/01/07 04:42:14;;;;;;;1.50;1.10;;;10.20;1.00;;;;;;5093184;28;20454;-72
2023/01/07 04:44:41;;;;;;;1.90;1.10;;;10.20;99.90;;;;;;5080386;28;20484;-72
2023/01/07 04:47:08;;;;;;;3.37;1.10;;;10.20;99.90;;;;;;5093295;28;20454;-72
2023/01/07 04:49:35;;;;;;;1.83;1.27;;;10.30;99.90;;;;;;5080503;28;20459;-72
2023/01/07 04:52:02;;;;;;;1.40;0.90;;;10.40;99.90;;;;;;5093543;28;21192;-72
2023/01/07 04:54:29;;;;;;;1.37;0.93;;;10.40;99.90;;;;;;5080961;28;20444;-72
2023/01/07 04:56:56;;;;;;;0.90;0.67;;;10.40;99.90;;;;;;5093546;28;20493;-72
2023/01/07 04:59:24;;;;;;;1.67;0.97;;;10.40;99.90;;;;;;5093534;28;20678;-72
2023/01/07 05:01:51;;;;;;;0.90;0.70;;;10.50;99.90;;;;;;5093141;28;20448;-72
2023/01/07 05:04:18;;;;;;;2.23;0.80;;;10.40;99.90;;;;;;5092900;28;20539;-72
2023/01/07 05:06:45;;;;;;;1.37;1.10;;;10.40;99.90;;;;;;5093431;28;20448;-72
2023/01/07 05:09:12;;;;;;;0.90;0.80;;;10.40;99.90;;;;;;5093204;28;20448;-72
2023/01/07 05:11:38;;;;;;;1.43;0.93;;;10.50;99.90;;;;;;5093436;28;20463;-73
2023/01/07 05:14:05;;;;;;;0.90;0.67;;;10.50;99.90;;;;;;5092762;28;20768;-72
2023/01/07 05:16:33;;;;;;;1.10;0.90;;;10.40;99.90;;;;;;5093567;28;20484;-72
2023/01/07 05:19:00;;;;;;;4.20;0.90;;;10.30;99.90;;;;;;5093374;28;20799;-73
2023/01/07 05:21:27;;;;;;;1.10;0.70;;;10.50;99.90;;;;;;5092822;28;20448;-73
2023/01/07 05:23:54;;;;;;;0.90;0.67;;;10.40;99.90;;;;;;5092693;28;20517;-73
2023/01/07 05:26:21;;;;;;;1.00;0.70;;;10.30;99.90;;;;;;5092706;28;20448;-74
2023/01/07 05:28:48;;;;;;;1.10;0.90;;;10.40;99.90;;;;;;5093336;28;20441;-73
2023/01/07 05:31:14;;;;;;;1.10;1.00;;;10.40;99.90;;;;;;5092438;28;20455;-72
2023/01/07 05:33:42;;;;;;;1.10;0.90;;;10.40;99.90;;;;;;5092998;28;20809;-73
2023/01/07 05:36:09;;;;;;;1.90;0.80;;;10.30;95.50;;;;;;5092469;28;20444;-72
2023/01/07 05:38:36;;;;;;;1.80;1.00;;;10.30;99.90;;;;;;5093105;28;20495;-73
2023/01/07 05:41:03;;;;;;;0.90;0.73;;;10.30;99.90;;;;;;5091639;28;20801;-72
2023/01/07 05:43:31;;;;;;;1.43;1.03;;;10.20;99.90;;;;;;5092517;28;20487;-74
2023/01/07 05:45:57;;;;;;;1.13;0.90;;;10.30;99.90;;;;;;5092692;28;20456;-73
2023/01/07 05:48:24;;;;;;;1.50;1.00;;;10.30;99.90;;;;;;5092079;28;20810;-73
2023/01/07 05:50:52;;;;;;;0.87;0.60;;;10.30;99.90;;;;;;5092642;28;20460;-73
2023/01/07 05:53:19;;;;;;;1.20;0.70;;;10.30;99.90;;;;;;5091446;28;20455;-73
2023/01/07 05:55:46;;;;;;;2.10;1.10;;;10.30;99.90;;;;;;5092687;28;20477;-72
2023/01/07 05:58:13;;;;;;;0.90;0.70;;;10.40;99.90;;;;;;5092299;28;20483;-73
2023/01/07 06:00:40;;;;;;;0.97;0.70;;;10.30;99.90;;;;;;5092661;28;20447;-73
2023/01/07 06:03:07;;;;;;;1.30;1.00;;;10.30;99.90;;;;;;5091716;28;20454;-73
2023/01/07 06:05:34;;;;;;;1.77;0.73;;;10.20;1.00;;;;;;5092506;28;20450;-73
2023/01/07 06:08:02;;;;;;;1.60;1.00;;;10.10;99.90;;;;;;5092757;28;20452;-73
2023/01/07 06:10:29;;;;;;;1.43;1.33;;;10.10;1.00;;;;;;5092404;28;20930;-73
2023/01/07 06:12:56;;;;;;;1.10;0.87;;;10.10;1.00;;;;;;5091950;28;20463;-73
2023/01/07 06:15:23;;;;;;;3.93;1.20;;;10.00;99.90;;;;;;5091875;28;20722;-73
2023/01/07 06:17:50;;;;;;;0.90;0.70;;;10.10;99.90;;;;;;5092387;28;20479;-73
2023/01/07 06:20:16;;;;;;;1.87;1.17;;;10.10;99.90;;;;;;5091418;28;20461;-73
2023/01/07 06:22:43;;;;;;;1.00;0.90;;;10.00;99.90;;;;;;5092132;28;20452;-73
2023/01/07 06:25:12;;;;;;;1.17;0.87;;;10.10;1.00;;;;;;5091701;28;20450;-73
2023/01/07 06:27:40;;;;;;;1.30;0.90;;;10.10;1.00;;;;;;5092248;28;20786;-72
2023/01/07 06:30:08;;;;;;;1.10;0.70;;;10.00;1.00;;;;;;5091857;28;20448;-73
2023/01/07 06:32:38;;;;;;;2.23;0.83;;;10.10;1.00;;;;;;5091828;28;20462;-73
2023/01/07 06:35:06;;;;;;;1.70;1.07;;;10.10;1.00;;;;;;5091484;28;20443;-72
2023/01/07 06:37:33;;;;;;;1.23;1.00;;;10.10;1.00;;;;;;5091871;28;20536;-73
2023/01/07 06:40:00;;;;;;;0.97;0.70;;;10.00;1.00;;;;;;5092263;28;20454;-73
2023/01/07 06:42:28;;;;;;;0.97;0.80;;;10.00;1.00;;;;;;5089031;28;20799;-73
2023/01/07 06:44:55;;;;;;;1.17;0.87;;;10.00;1.00;;;;;;5080665;28;20515;-74
2023/01/07 06:47:21;;;;;;;1.43;1.03;;;9.90;1.00;;;;;;5091332;28;20475;-73
2023/01/07 06:49:48;;;;;;;4.67;1.90;;;9.90;1.00;;;;;;5091576;28;20452;-73
2023/01/07 06:52:15;;;;;;;1.10;1.00;;;10.00;1.00;;;;;;5090286;28;20459;-73
2023/01/07 06:54:42;;;;;;;1.20;0.93;;;9.90;99.90;;;;;;5091753;28;20796;-73
2023/01/07 06:57:08;;;;;;;0.90;0.80;;;9.90;1.00;;;;;;5090915;28;20480;-73
2023/01/07 06:59:36;;;;;;;1.40;1.03;;;9.90;1.00;;;;;;5091541;28;20455;-73
2023/01/07 07:02:03;;;;;;;1.27;0.83;;;9.90;1.00;;;;;;5090761;28;20474;-72
2023/01/07 07:04:30;;;;;;;1.10;0.90;;;9.90;1.00;;;;;;5091908;28;20447;-73
2023/01/07 07:06:57;;;;;;;1.60;1.13;;;9.90;99.90;;;;;;5091195;28;20460;-73
2023/01/07 07:09:24;;;;;;;2.00;0.90;;;9.90;99.90;;;;;;5090756;28;20453;-73
2023/01/07 07:11:50;;;;;;;1.10;0.70;;;9.80;99.90;;;;;;5091041;28;20450;-74
2023/01/07 07:14:17;;;;;;;0.93;0.83;;;9.70;99.90;;;;;;5091003;28;20446;-73
2023/01/07 07:16:45;;;;;;;1.00;0.73;;;9.60;99.90;;;;;;5091421;28;20451;-73
2023/01/07 07:19:12;;;;;;;0.80;0.70;;;9.60;99.90;;;;;;5090636;28;20491;-73
2023/01/07 07:21:39;;;;;;;0.90;0.70;;;9.60;99.90;;;;;;5090981;28;20461;-73
2023/01/07 07:24:06;;;;;;;1.00;0.77;;;;;;;;;;5090916;28;20763;-72
2023/01/07 07:26:33;;;;;;;1.17;0.90;;;;;;;;;;5091276;28;20778;-73
2023/01/07 07:29:00;;;;;;;1.00;0.70;;;;;;;;;;5091513;28;20461;-73
2023/01/07 07:31:27;;;;;;;1.60;0.70;;;;;;;;;;5089925;28;20452;-73
2023/01/07 07:33:56;;;;;;;0.90;0.77;;;;;;;;;;5090983;28;20928;-73
2023/01/07 07:36:23;;;;;;;1.10;0.97;;;;;;;;;;5090571;28;20803;-73
2023/01/07 07:38:50;;;;;;;1.33;0.80;;;;;;;;;;5091003;28;20477;-73
2023/01/07 07:41:17;;;;;;;1.40;0.70;;;;;;;;;;5090745;28;20448;-73
2023/01/07 07:43:44;;;;;;;1.20;0.80;;;;;;;;;;5090851;28;20581;-73
2023/01/07 07:46:11;;;;;;;1.37;0.80;;;;;;;;;;5090497;28;20449;-75
2023/01/07 07:48:38;;;;;;;1.00;0.80;;;9.50;1.00;;;;;;5091068;28;20457;-74
2023/01/07 07:51:07;;;;;;;1.30;0.87;;;;;;;;;;5090634;28;20879;-73
2023/01/07 07:53:34;;;;;;;0.80;0.70;;;;;;;;;;5090436;28;20970;-74
2023/01/07 07:56:01;;;;;;;1.07;0.80;;;;;;;;;;5091261;28;20932;-74
2023/01/07 07:58:28;;;;;;;0.83;0.70;;;;;;;;;;5090310;28;20512;-73
2023/01/07 08:00:55;;;;;;;1.10;0.73;;;;;;;;;;5077250;28;20455;-74
2023/01/07 08:03:22;;;;;;;1.10;1.00;;;;;;;;;;5090945;28;20450;-74
2023/01/07 08:05:49;;;;;;;0.70;0.60;;;;;;;;;;5094967;28;20811;-74
2023/01/07 08:08:18;;;;;;;0.90;0.80;;;;;;;;;;5094431;28;20445;-74
2023/01/07 08:10:45;;;;;;;1.30;0.80;;;;;;;;;;5095216;28;20447;-74
2023/01/07 08:13:12;;;;;;;1.70;0.90;;;;;;;;;;5094265;28;20457;-73
2023/01/07 08:15:40;;;;;;;1.27;1.10;;;;;;;;;;5094961;28;20847;-74
2023/01/07 08:18:08;;;;;;;0.90;0.67;;;;;;;;;;5094147;28;20488;-73
2023/01/07 08:20:36;;;;;;;1.50;0.97;;;;;;;;;;5094862;28;20448;-74
2023/01/07 08:23:04;;;;;;;1.60;1.00;;;;;;;;;;5095129;28;20458;-72
2023/01/07 08:25:33;;;;;;;1.07;0.90;;;;;;;;;;5099010;28;20445;-74
2023/01/07 08:28:01;;;;;;;1.17;1.07;;;;;;;;;;5109288;28;20528;-74
2023/01/07 08:30:28;;;;;;;1.67;0.93;;;;;;;;;;5109449;28;20473;-74
2023/01/07 08:32:55;;;;;;;1.43;0.97;;;;;;;;;;5105117;28;20529;-75
2023/01/07 08:35:22;;;;;;;0.80;0.70;;;;;;;;;;5101379;28;20454;-74
2023/01/07 08:37:50;;;;;;;1.73;1.03;;;;;;;;;;5096431;28;20502;-74
2023/01/07 08:40:17;;;;;;;1.00;0.80;;;;;;;;;;5093933;28;20447;-74
2023/01/07 08:42:45;;;;;;;1.60;1.00;;;;;;;;;;5093426;28;20986;-74
2023/01/07 08:45:12;;;;;;;1.10;0.90;;;;;;;;;;5093965;28;20445;-74
2023/01/07 08:47:39;;;;;;;1.10;0.80;;;;;;;;;;5094256;28;20464;-74
2023/01/07 08:50:07;;;;;;;1.73;0.83;;;;;;;;;;5093632;28;20440;-74
2023/01/07 08:52:34;;;;;;;1.00;0.80;;;;;;;;;;5093689;28;20456;-74
2023/01/07 08:55:01;;;;;;;1.27;1.03;;;;;;;;;;5094278;28;20538;-74
2023/01/07 08:57:29;;;;;;;1.33;1.00;;;;;;;;;;5093762;28;20444;-74
2023/01/07 08:59:57;;;;;;;1.03;0.83;;;;;;;;;;5094118;28;20448;-74
2023/01/07 09:02:24;;;;;;;1.10;0.80;;;;;;;;;;5092934;28;20503;-74
2023/01/07 09:04:51;;;;;;;1.50;1.40;;;;;;;;;;5093411;28;20448;-74
2023/01/07 09:07:18;;;;;;;1.40;1.20;;;;;;;;;;5093080;28;20457;-74
2023/01/07 09:09:46;;;;;;;3.23;1.63;;;;;;;;;;5093850;28;20477;-74
2023/01/07 09:12:13;;;;;;;1.23;0.90;;;;;;;;;;5092737;28;20444;-74
2023/01/07 09:14:40;;;;;;;1.00;0.80;;;;;;;;;;5093657;28;20448;-73
2023/01/07 09:17:08;;;;;;;1.93;1.10;;;;;;;;;;5092884;28;20448;-73
2023/01/07 09:19:36;;;;;;;1.03;0.70;;;;;;;;;;5093464;28;20490;-73
2023/01/07 09:22:03;;;;;;;1.70;1.27;;;;;;;;;;5093166;28;20447;-73
2023/01/07 09:24:30;;;;;;;1.47;0.90;;;;;;;;;;5093390;28;20451;-73
2023/01/07 09:26:57;;;;;;;1.33;0.90;;;;;;;;;;5081006;28;20450;-73
2023/01/07 09:29:24;;;;;;;1.07;0.90;;;;;;;;;;5092931;28;20456;-73
2023/01/07 09:31:51;;;;;;;1.30;0.90;;;;;;;;;;5092837;28;20455;-74
2023/01/07 09:34:20;;;;;;;3.83;1.10;;;;;;;;;;5092727;28;20904;-74
2023/01/07 09:36:47;;;;;;;1.40;1.07;;;;;;;;;;5092889;28;20446;-74
2023/01/07 09:39:14;;;;;;;2.13;1.10;;;;;;;;;;5092781;28;20798;-73
2023/01/07 09:41:45;;;;;;;1.27;0.93;;;;;;;;;;5092808;28;20458;-74
2023/01/07 09:44:16;;;;;;;1.20;0.90;;;;;;;;;;5092023;28;20491;-73
2023/01/07 09:46:44;;;;;;;1.40;0.90;;;;;;;;;;5093290;28;20441;-73
2023/01/07 09:49:16;;;;;;;1.53;1.33;;;;;;;;;;5092619;28;20456;-73
2023/01/07 09:51:46;;;;;;;2.57;1.70;;;;;;;;;;5092267;28;20440;-73
2023/01/07 09:54:18;;;;;;;1.43;1.27;;;;;;;;;;5092563;28;20460;-73
2023/01/07 09:56:46;;;;;;;1.63;1.37;;;;;;;;;;5093165;28;20765;-73
2023/01/07 09:59:13;;;;;;;1.80;1.20;;;;;;;;;;5092385;28;20833;-74
2023/01/07 10:01:45;;;;;;;3.83;1.70;;;;;;;;;;5092449;28;20458;-73
2023/01/07 10:04:21;;;;;;;3.37;1.83;;;;;;;;;;5079439;28;20479;-73
2023/01/07 10:06:52;;;;;;;2.80;1.53;;;;;;;;;;5092643;28;20443;-73
2023/01/07 10:09:25;;;;;;;2.80;1.60;;;;;;;;;;5091948;28;20809;-73
2023/01/07 10:11:59;;;;;;;2.27;1.57;;;;;;;;;;5091929;28;20444;-74
2023/01/07 10:14:30;;;;;;;2.40;1.70;;;;;;;;;;5091897;28;20435;-74
2023/01/07 10:17:01;;;;;;;1.80;1.30;;;;;;;;;;5092679;28;20453;-74
2023/01/07 10:19:34;;;;;;;2.40;1.70;;;;;;;;;;5092231;28;20476;-74
2023/01/07 10:22:05;;;;;;;2.10;1.40;;;;;;;;;;5078433;28;20459;-74
2023/01/07 10:24:34;;;;;;;3.07;2.07;;;;;;;;;;5092602;28;20863;-74
2023/01/07 10:27:04;;;;;;;2.37;1.60;;;;;;;;;;5092065;28;20460;-74
2023/01/07 10:29:34;;;;;;;3.30;1.93;;;;;;;;;;5092407;28;20537;-74
2023/01/07 10:32:05;;;;;;;3.63;1.77;;;;;;;;;;5092069;28;20448;-74
2023/01/07 10:34:36;;;;;;;2.20;1.40;;;;;;;;;;5091967;28;20459;-74
2023/01/07 10:37:07;;;;;;;2.53;2.33;;;;;;;;;;5091626;28;20909;-72
2023/01/07 10:39:41;;;;;;;2.80;1.70;;;;;;;;;;5091716;28;20483;-74
2023/01/07 10:42:12;;;;;;;3.07;2.30;;;;;;;;;;5090873;28;20771;-74
2023/01/07 10:44:46;;;;;;;3.33;1.40;;;;;;;;;;5078796;28;20579;-74
2023/01/07 10:47:20;;;;;;;2.00;1.47;;;;;;;;;;5091184;28;20447;-73
2023/01/07 10:49:58;;;;;;;2.33;2.00;;;;;;;;;;5091889;28;20453;-73
2023/01/07 10:52:32;;;;;;;1.63;1.30;;;;;;;;;;5090949;28;20802;-74
2023/01/07 10:55:05;;;;;;;2.40;1.70;;;;;;;;;;5091994;28;20445;-74
2023/01/07 10:57:33;;;;;;;2.93;1.97;;;;;;;;;;5091646;28;20469;-74
2023/01/07 11:00:02;;;;;;;2.60;1.70;;;;;;;;;;5091704;28;20492;-74
2023/01/07 11:02:29;;;;;;;2.37;1.43;;;;;;;;;;5091029;28;20450;-74
2023/01/07 11:04:58;;;;;;;2.77;2.20;;;;;;;;;;5091575;28;20922;-74
2023/01/07 11:07:29;;;;;;;2.33;1.70;;;;;;;;;;5077377;28;20452;-74
2023/01/07 11:09:59;;;;;;;5.20;1.80;;;;;;;;;;5091114;28;20453;-73
2023/01/07 11:12:30;;;;;;;1.87;1.77;;;;;;;;;;5090454;28;20458;-74
2023/01/07 11:15:00;;;;;;;3.10;1.77;;;;;;;;;;5091436;28;20440;-74
2023/01/07 11:17:29;;;;;;;3.47;2.07;;;;;;;;;;5091041;28;20460;-74
2023/01/07 11:19:57;;;;;;;2.43;1.77;;;;;;;;;;5091022;28;20489;-73
2023/01/07 11:22:29;;;;;;;2.90;1.90;;;;;;;;;;5090046;28;20969;-74
2023/01/07 11:24:58;;;;;;;2.90;1.87;;;;;;;;;;5090840;28;20471;-73
2023/01/07 11:27:26;;;;;;;3.80;1.90;;;;;;;;;;5090500;28;20437;-74
2023/01/07 11:29:58;;;;;;;2.60;1.70;;;;;;;;;;5090929;28;20457;-74
2023/01/07 11:32:26;;;;;;;2.27;1.87;;;;;;;;;;5089779;28;20449;-74
2023/01/07 11:34:58;;;;;;;2.77;2.13;;;;;;;;;;5090994;28;20559;-74
2023/01/07 11:37:32;;;;;;;2.93;1.83;;;;;;;;;;5090487;28;20440;-73
2023/01/07 11:40:02;;;;;;;2.50;2.10;;;;;;;;;;5095015;28;20560;-74
2023/01/07 11:42:39;;;;;;;3.00;1.80;;;;;;;;;;5094782;28;20470;-73
2023/01/07 11:45:12;;;;;;;3.47;1.77;;;;;;;;;;5094420;28;20923;-73
2023/01/07 11:47:40;;;;;;;2.77;1.73;;;;;;;;;;5094780;28;20771;-73
2023/01/07 11:50:08;;;;;;;4.10;2.33;;;;;;;;;;5093958;28;20460;-73
2023/01/07 11:52:35;;;;;;;2.37;1.77;;;;;;;;;;5094338;28;20931;-73
2023/01/07 11:55:22;;;;;;;1.97;1.70;;;;;;;;;;5094749;28;20460;-73
2023/01/07 11:57:53;;;;;;;1.87;1.57;;;;;;;;;;5082732;28;20459;-73
2023/01/07 12:00:21;;;;;;;2.57;2.10;;;;;;;;;;5094260;28;20524;-73
2023/01/07 12:03:00;;;;;;;2.10;1.67;;;;;;;;;;5094414;28;20459;-74
2023/01/07 12:05:27;;;;;;;2.80;2.17;;;;;;;;;;5094147;28;20497;-74
2023/01/07 12:07:57;;;;;;;1.90;1.70;;;;;;;;;;5094833;28;20456;-73
2023/01/07 12:10:30;;;;;;;2.60;1.60;;;;;;;;;;5094219;28;20890;-74
2023/01/07 12:12:58;;;;;;;3.33;2.43;;;;;;;;;;5094233;28;20463;-74
2023/01/07 12:15:28;;;;;;;3.03;2.10;;;;;;;;;;5094091;28;20443;-74
2023/01/07 12:18:01;;;;;;;3.90;2.30;;;;;;;;;;5094311;28;20811;-73
2023/01/07 12:20:35;;;;;;;3.10;2.03;;;;;;;;;;5094667;28;20476;-73
2023/01/07 12:23:08;;;;;;;4.27;2.40;;;;;;;;;;5094056;28;20481;-74
2023/01/07 12:25:44;;;;;;;2.90;1.77;;;;;;;;;;5094721;28;20818;-74
2023/01/07 12:28:12;;;;;;;2.00;1.47;;;;;;;;;;5093895;28;20437;-74
2023/01/07 12:30:44;;;;;;;2.00;1.40;;;;;;;;;;5094644;28;20467;-74
2023/01/07 12:33:18;;;;;;;2.47;1.90;;;;;;;;;;5093178;28;20535;-73
2023/01/07 12:35:46;;;;;;;5.20;3.00;;;;;;;;;;5094306;28;20450;-74
2023/01/07 12:38:15;;;;;;;2.23;2.03;;;;;;;;;;5093812;28;20467;-73
2023/01/07 12:40:45;;;;;;;2.73;1.57;;;;;;;;;;5093905;28;20484;-73
2023/01/07 12:43:15;;;;;;;2.93;1.90;;;;;;;;;;5092901;28;20483;-72
2023/01/07 12:45:44;;;;;;;2.40;1.47;;;;;;;;;;5093798;28;20460;-72
2023/01/07 12:48:15;;;;;;;3.07;2.27;;;;;;;;;;5093496;28;20457;-73
2023/01/07 12:50:44;;;;;;;3.37;2.00;;;;;;;;;;5093440;28;20441;-73
2023/01/07 12:53:14;;;;;;;4.63;2.27;;;;;;;;;;5092804;28;20445;-72
2023/01/07 12:55:43;;;;;;;3.63;2.07;;;;;;;;;;5093884;28;20445;-73
2023/01/07 12:58:15;;;;;;;2.97;1.90;;;;;;;;;;5093370;28;20457;-72
2023/01/07 13:00:45;;;;;;;4.27;2.07;;;;;;;;;;5093790;28;20475;-73
2023/01/07 13:03:19;;;;;;;1.53;1.43;;;;;;;;;;5093105;28;20981;-72
2023/01/07 13:05:49;;;;;;;2.27;1.77;;;;;;;;;;5079632;28;20477;-72
2023/01/07 13:08:19;;;;;;;2.53;1.80;;;;;;;;;;5090358;28;20459;-72
2023/01/07 13:10:50;;;;;;;3.47;2.10;;;;;;;;;;5092129;28;20464;-73
2023/01/07 13:13:21;;;;;;;1.40;1.30;;;;;;;;;;5090250;28;20631;-72
2023/01/07 13:15:48;;;;;;;1.90;1.70;;;;;;;;;;5091728;28;21016;-72
2023/01/07 13:18:16;;;;;;;3.67;2.07;;;;;;;;;;5089266;28;20467;-72
2023/01/07 13:20:55;;;;;;;3.27;1.80;;;;;;;;;;5092276;28;20488;-72
2023/01/07 13:23:24;;;;;;;3.33;1.90;;;;;;;;;;5089472;28;20464;-72
2023/01/07 13:26:05;;;;;;;3.60;2.13;;;;;;;;;;5092305;28;20812;-72
2023/01/07 13:28:45;;;;;;;1.93;1.73;;;;;;;;;;5079911;28;20441;-72
2023/01/07 13:31:17;;;;;;;3.00;2.50;;;;;;;;;;5091731;28;20429;-72
2023/01/07 13:33:46;;;;;;;2.80;2.10;;;;;;;;;;5092683;28;20445;-72
2023/01/07 13:36:21;;;;;;;2.50;1.70;;;;;;;;;;5091728;28;20497;-72
2023/01/07 13:38:58;;;;;;;2.80;2.33;;;;;;;;;;5092366;28;21010;-73
2023/01/07 13:41:43;;;;;;;4.27;2.10;;;;;;;;;;5091060;28;20444;-73
2023/01/07 13:44:23;;;;;;;3.30;2.10;;;;;;;;;;5091608;28;20476;-73
2023/01/07 13:46:50;;;;;;;3.10;1.87;;;;;;;;;;5092331;28;20453;-73
2023/01/07 13:49:22;;;;;;;2.60;1.70;;;;;;;;;;5091706;28;20453;-74
2023/01/07 13:51:49;;;;;;;2.40;1.67;;;;;;;;;;5091635;28;20444;-74
2023/01/07 13:54:41;;;;;;;2.10;1.60;;;;;;;;;;5091651;28;20449;-72
2023/01/07 13:57:23;;;;;;;2.50;1.53;;;;;;;;;;5091281;28;20476;-72
2023/01/07 13:59:52;;;;;;;2.23;1.90;;;;;;;;;;5091517;28;20919;-72
2023/01/07 14:02:21;;;;;;;2.83;2.00;;;;;;;;;;5090316;28;20455;-73
2023/01/07 14:04:49;;;;;;;5.17;2.20;;;;;;;;;;5091876;28;20449;-72
2023/01/07 14:07:16;;;;;;;2.47;2.07;;;;;;;;;;5091024;28;20945;-72
2023/01/07 14:09:43;;;;;;;2.20;1.70;;;;;;;;;;5091647;28;21077;-72
2023/01/07 14:12:30;;;;;;;1.90;1.70;;;;;;;;;;5091025;28;20893;-72
2023/01/07 14:15:12;;;;;;;1.90;1.50;;;;;;;;;;5091473;28;20448;-73
2023/01/07 14:17:46;;;;;;;1.80;1.60;;;;;;;;;;5037276;28;20464;-72
2023/01/07 14:20:17;;;;;;;3.10;1.83;;;;;;;;;;5091217;28;20484;-73
2023/01/07 14:22:47;;;;;;;2.50;2.07;;;;;;;;;;5090870;28;20452;-72